sensor_id;sensor_type;location;lat;lon;timestamp;pressure;altitude;pressure_sealevel;temperature;humidity
11712;BME280;5912;51.034;6.984;2023-03-25T00:01:17;56510.56;;;-142.13;61.15
11712;BME280;5912;51.034;6.984;2023-03-25T00:03:44;56488.53;;;-142.13;61.29
11712;BME280;5912;51.034;6.984;2023-03-25T00:06:12;56496.56;;;-142.13;60.94
11712;BME280;5912;51.034;6.984;2023-03-25T00:08:38;56502.56;;;-142.13;60.84
11712;BME280;5912;51.034;6.984;2023-03-25T00:11:04;56504.56;;;-142.13;60.09
11712;BME280;5912;51.034;6.984;2023-03-25T00:13:31;56480.53;;;-142.13;60.24
11712;BME280;5912;51.034;6.984;2023-03-25T00:15:56;56504.56;;;-142.13;60.27
11712;BME280;5912;51.034;6.984;2023-03-25T00:18:24;56500.56;;;-142.13;60.06
11712;BME280;5912;51.034;6.984;2023-03-25T00:20:51;56480.53;;;-142.13;60.06
11712;BME280;5912;51.034;6.984;2023-03-25T00:23:18;56510.56;;;-142.13;59.85
11712;BME280;5912;51.034;6.984;2023-03-25T00:25:44;56512.59;;;-142.13;59.55
11712;BME280;5912;51.034;6.984;2023-03-25T00:28:10;56510.56;;;-142.13;59.34
11712;BME280;5912;51.034;6.984;2023-03-25T00:30:43;56492.53;;;-142.13;59.35
11712;BME280;5912;51.034;6.984;2023-03-25T00:33:09;56500.56;;;-142.13;59.25
11712;BME280;5912;51.034;6.984;2023-03-25T00:38:57;56504.56;;;-142.13;58.74
11712;BME280;5912;51.034;6.984;2023-03-25T00:41:24;56490.53;;;-142.13;58.73
11712;BME280;5912;51.034;6.984;2023-03-25T00:43:57;56502.56;;;-142.13;58.82
11712;BME280;5912;51.034;6.984;2023-03-25T00:46:24;56464.50;;;-142.13;58.59
11712;BME280;5912;51.034;6.984;2023-03-25T00:48:51;56518.59;;;-142.13;58.31
11712;BME280;5912;51.034;6.984;2023-03-25T00:51:17;56506.56;;;-142.13;57.97
11712;BME280;5912;51.034;6.984;2023-03-25T00:53:45;56504.56;;;-142.13;56.67
11712;BME280;5912;51.034;6.984;2023-03-25T00:56:11;56490.53;;;-142.13;56.04
11712;BME280;5912;51.034;6.984;2023-03-25T00:58:37;56468.50;;;-142.13;55.84
11712;BME280;5912;51.034;6.984;2023-03-25T01:01:10;56454.47;;;-142.13;55.47
11712;BME280;5912;51.034;6.984;2023-03-25T01:03:37;56448.47;;;-142.13;54.90
11712;BME280;5912;51.034;6.984;2023-03-25T01:06:07;56470.50;;;-142.13;55.25
11712;BME280;5912;51.034;6.984;2023-03-25T01:08:33;56430.44;;;-142.13;54.49
11712;BME280;5912;51.034;6.984;2023-03-25T01:10:58;56482.53;;;-142.13;54.77
11712;BME280;5912;51.034;6.984;2023-03-25T01:13:23;56456.50;;;-142.13;54.69
11712;BME280;5912;51.034;6.984;2023-03-25T01:15:49;56496.56;;;-142.13;54.61
11712;BME280;5912;51.034;6.984;2023-03-25T01:18:14;56500.56;;;-142.13;53.63
11712;BME280;5912;51.034;6.984;2023-03-25T01:20:40;56466.50;;;-142.13;53.96
11712;BME280;5912;51.034;6.984;2023-03-25T01:23:05;56490.53;;;-142.13;54.16
11712;BME280;5912;51.034;6.984;2023-03-25T01:25:32;56502.56;;;-142.13;53.55
11712;BME280;5912;51.034;6.984;2023-03-25T01:27:57;56474.53;;;-142.13;53.83
11712;BME280;5912;51.034;6.984;2023-03-25T01:30:22;56516.59;;;-142.13;53.89
11712;BME280;5912;51.034;6.984;2023-03-25T01:32:48;56496.56;;;-142.13;54.44
11712;BME280;5912;51.034;6.984;2023-03-25T01:35:13;56472.50;;;-142.13;54.69
11712;BME280;5912;51.034;6.984;2023-03-25T01:37:39;56464.50;;;-142.13;55.34
11712;BME280;5912;51.034;6.984;2023-03-25T01:40:15;56496.56;;;-142.13;55.22
11712;BME280;5912;51.034;6.984;2023-03-25T01:42:41;56500.56;;;-142.13;55.35
11712;BME280;5912;51.034;6.984;2023-03-25T01:45:18;56478.53;;;-142.13;55.11
11712;BME280;5912;51.034;6.984;2023-03-25T01:47:45;56508.56;;;-142.13;55.51
11712;BME280;5912;51.034;6.984;2023-03-25T01:50:12;56506.56;;;-142.13;55.77
11712;BME280;5912;51.034;6.984;2023-03-25T01:52:41;56512.59;;;-142.13;55.55
11712;BME280;5912;51.034;6.984;2023-03-25T01:55:08;56490.53;;;-142.13;55.27
11712;BME280;5912;51.034;6.984;2023-03-25T01:57:34;56488.53;;;-142.13;55.49
11712;BME280;5912;51.034;6.984;2023-03-25T02:00:01;56492.53;;;-142.13;55.14
11712;BME280;5912;51.034;6.984;2023-03-25T02:02:32;56488.53;;;-142.13;55.20
11712;BME280;5912;51.034;6.984;2023-03-25T02:05:07;56492.53;;;-142.13;55.56
11712;BME280;5912;51.034;6.984;2023-03-25T02:07:38;56496.56;;;-142.13;55.21
11712;BME280;5912;51.034;6.984;2023-03-25T02:10:09;56484.53;;;-142.13;55.56
11712;BME280;5912;51.034;6.984;2023-03-25T02:12:35;56500.56;;;-142.13;55.09
11712;BME280;5912;51.034;6.984;2023-03-25T02:15:02;56496.56;;;-142.13;55.65
11712;BME280;5912;51.034;6.984;2023-03-25T02:29:22;56496.56;;;-142.13;59.21
11712;BME280;5912;51.034;6.984;2023-03-25T02:32:04;56478.53;;;-142.13;60.01
11712;BME280;5912;51.034;6.984;2023-03-25T02:38:02;56506.56;;;-142.13;60.83
11712;BME280;5912;51.034;6.984;2023-03-25T02:40:35;56494.56;;;-142.13;60.85
11712;BME280;5912;51.034;6.984;2023-03-25T02:43:17;56508.56;;;-142.13;60.85
11712;BME280;5912;51.034;6.984;2023-03-25T02:45:49;56512.59;;;-142.13;60.96
11712;BME280;5912;51.034;6.984;2023-03-25T02:48:30;56514.59;;;-142.13;60.83
11712;BME280;5912;51.034;6.984;2023-03-25T02:51:00;56490.53;;;-142.13;60.56
11712;BME280;5912;51.034;6.984;2023-03-25T02:53:32;56520.59;;;-142.13;60.80
11712;BME280;5912;51.034;6.984;2023-03-25T02:56:06;56498.56;;;-142.13;60.91
11712;BME280;5912;51.034;6.984;2023-03-25T02:58:34;56528.59;;;-142.13;61.08
11712;BME280;5912;51.034;6.984;2023-03-25T03:00:59;56500.56;;;-142.13;60.98
11712;BME280;5912;51.034;6.984;2023-03-25T03:03:26;56480.53;;;-142.13;61.03
11712;BME280;5912;51.034;6.984;2023-03-25T03:05:55;56502.56;;;-142.13;61.11
11712;BME280;5912;51.034;6.984;2023-03-25T03:08:34;56528.59;;;-142.13;61.18
11712;BME280;5912;51.034;6.984;2023-03-25T03:25:47;56512.59;;;-142.13;60.70
11712;BME280;5912;51.034;6.984;2023-03-25T03:28:32;56526.59;;;-142.13;60.58
11712;BME280;5912;51.034;6.984;2023-03-25T03:31:10;56524.59;;;-142.13;60.04
11712;BME280;5912;51.034;6.984;2023-03-25T03:36:14;56514.59;;;-142.13;60.17
11712;BME280;5912;51.034;6.984;2023-03-25T03:38:46;56510.56;;;-142.13;59.62
11712;BME280;5912;51.034;6.984;2023-03-25T03:41:17;56486.53;;;-142.13;59.56
11712;BME280;5912;51.034;6.984;2023-03-25T03:46:19;56520.59;;;-142.13;59.45
11712;BME280;5912;51.034;6.984;2023-03-25T03:48:51;56516.59;;;-142.13;59.68
11712;BME280;5912;51.034;6.984;2023-03-25T03:54:04;56512.59;;;-142.13;58.95
11712;BME280;5912;51.034;6.984;2023-03-25T03:56:38;56508.56;;;-142.13;59.38
11712;BME280;5912;51.034;6.984;2023-03-25T03:59:27;56514.59;;;-142.13;59.23
11712;BME280;5912;51.034;6.984;2023-03-25T04:01:59;56508.56;;;-142.13;59.16
11712;BME280;5912;51.034;6.984;2023-03-25T04:04:25;56522.59;;;-142.13;59.19
11712;BME280;5912;51.034;6.984;2023-03-25T04:09:28;56496.56;;;-142.13;59.47
11712;BME280;5912;51.034;6.984;2023-03-25T04:12:07;56504.56;;;-142.13;59.78
11712;BME280;5912;51.034;6.984;2023-03-25T04:14:36;56494.56;;;-142.13;59.53
11712;BME280;5912;51.034;6.984;2023-03-25T04:17:04;56524.59;;;-142.13;59.11
11712;BME280;5912;51.034;6.984;2023-03-25T04:19:29;56498.56;;;-142.13;59.23
11712;BME280;5912;51.034;6.984;2023-03-25T04:21:58;56504.56;;;-142.13;58.66
11712;BME280;5912;51.034;6.984;2023-03-25T04:24:26;56548.63;;;-142.13;58.58
11712;BME280;5912;51.034;6.984;2023-03-25T04:26:59;56516.59;;;-142.13;58.31
11712;BME280;5912;51.034;6.984;2023-03-25T04:29:30;56502.56;;;-142.13;57.91
11712;BME280;5912;51.034;6.984;2023-03-25T04:31:56;56518.59;;;-142.13;57.81
11712;BME280;5912;51.034;6.984;2023-03-25T04:34:22;56536.63;;;-142.13;57.24
11712;BME280;5912;51.034;6.984;2023-03-25T04:36:48;56532.63;;;-142.13;56.68
11712;BME280;5912;51.034;6.984;2023-03-25T04:39:16;56506.56;;;-142.13;56.95
11712;BME280;5912;51.034;6.984;2023-03-25T04:41:43;56514.59;;;-142.13;56.52
11712;BME280;5912;51.034;6.984;2023-03-25T04:44:09;56504.56;;;-142.13;56.41
11712;BME280;5912;51.034;6.984;2023-03-25T04:46:35;56498.56;;;-142.13;56.41
11712;BME280;5912;51.034;6.984;2023-03-25T04:49:03;56516.59;;;-142.13;56.13
11712;BME280;5912;51.034;6.984;2023-03-25T04:51:31;56508.56;;;-142.13;56.01
11712;BME280;5912;51.034;6.984;2023-03-25T04:53:57;56508.56;;;-142.13;55.81
11712;BME280;5912;51.034;6.984;2023-03-25T04:56:22;56470.50;;;-142.13;55.95
11712;BME280;5912;51.034;6.984;2023-03-25T04:58:48;56524.59;;;-142.13;56.13
11712;BME280;5912;51.034;6.984;2023-03-25T05:01:24;56508.56;;;-142.13;56.20
11712;BME280;5912;51.034;6.984;2023-03-25T05:04:01;56516.59;;;-142.13;55.79
11712;BME280;5912;51.034;6.984;2023-03-25T05:06:35;56504.56;;;-142.13;55.48
11712;BME280;5912;51.034;6.984;2023-03-25T05:09:03;56492.53;;;-142.13;55.22
11712;BME280;5912;51.034;6.984;2023-03-25T05:11:30;56492.53;;;-142.13;55.37
11712;BME280;5912;51.034;6.984;2023-03-25T05:13:56;56496.56;;;-142.13;54.97
11712;BME280;5912;51.034;6.984;2023-03-25T05:16:21;56502.56;;;-142.13;54.76
11712;BME280;5912;51.034;6.984;2023-03-25T05:18:47;56496.56;;;-142.13;54.48
11712;BME280;5912;51.034;6.984;2023-03-25T05:21:13;56492.53;;;-142.13;54.46
11712;BME280;5912;51.034;6.984;2023-03-25T05:23:38;56492.53;;;-142.13;54.28
11712;BME280;5912;51.034;6.984;2023-03-25T05:26:06;56532.63;;;-142.13;54.66
11712;BME280;5912;51.034;6.984;2023-03-25T05:28:31;56500.56;;;-142.13;54.86
11712;BME280;5912;51.034;6.984;2023-03-25T05:30:58;56508.56;;;-142.13;54.64
11712;BME280;5912;51.034;6.984;2023-03-25T05:33:23;56496.56;;;-142.13;54.18
11712;BME280;5912;51.034;6.984;2023-03-25T05:35:48;56504.56;;;-142.13;53.87
11712;BME280;5912;51.034;6.984;2023-03-25T05:38:15;56504.56;;;-142.13;53.70
11712;BME280;5912;51.034;6.984;2023-03-25T05:40:44;56482.53;;;-142.13;53.37
11712;BME280;5912;51.034;6.984;2023-03-25T05:43:11;56498.56;;;-142.13;53.58
11712;BME280;5912;51.034;6.984;2023-03-25T05:45:36;56474.53;;;-142.13;53.13
11712;BME280;5912;51.034;6.984;2023-03-25T05:48:02;56508.56;;;-142.13;53.54
11712;BME280;5912;51.034;6.984;2023-03-25T05:50:28;56508.56;;;-142.13;53.44
11712;BME280;5912;51.034;6.984;2023-03-25T05:52:53;56484.53;;;-142.13;53.31
11712;BME280;5912;51.034;6.984;2023-03-25T05:55:21;56494.56;;;-142.13;53.39
11712;BME280;5912;51.034;6.984;2023-03-25T05:57:47;56466.50;;;-142.13;53.37
11712;BME280;5912;51.034;6.984;2023-03-25T06:00:14;56500.56;;;-142.13;53.20
11712;BME280;5912;51.034;6.984;2023-03-25T06:02:40;56464.50;;;-142.13;52.81
11712;BME280;5912;51.034;6.984;2023-03-25T06:05:11;56480.53;;;-142.13;53.04
11712;BME280;5912;51.034;6.984;2023-03-25T06:07:44;56478.53;;;-142.13;52.77
11712;BME280;5912;51.034;6.984;2023-03-25T06:10:13;56480.53;;;-142.13;53.01
11712;BME280;5912;51.034;6.984;2023-03-25T06:12:45;56478.53;;;-142.13;52.96
11712;BME280;5912;51.034;6.984;2023-03-25T06:15:12;56480.53;;;-142.13;53.06
11712;BME280;5912;51.034;6.984;2023-03-25T06:17:38;56488.53;;;-142.13;53.09
11712;BME280;5912;51.034;6.984;2023-03-25T06:20:07;56510.56;;;-142.13;53.89
11712;BME280;5912;51.034;6.984;2023-03-25T06:22:40;56484.53;;;-142.13;55.44
11712;BME280;5912;51.034;6.984;2023-03-25T06:25:19;56500.56;;;-142.13;57.76
11712;BME280;5912;51.034;6.984;2023-03-25T06:27:49;56480.53;;;-142.13;58.97
11712;BME280;5912;51.034;6.984;2023-03-25T06:30:17;56500.56;;;-142.13;60.90
11712;BME280;5912;51.034;6.984;2023-03-25T06:32:43;56506.56;;;-142.13;61.91
11712;BME280;5912;51.034;6.984;2023-03-25T06:35:10;56524.59;;;-142.13;62.71
11712;BME280;5912;51.034;6.984;2023-03-25T06:37:37;56522.59;;;-142.13;63.72
11712;BME280;5912;51.034;6.984;2023-03-25T06:40:03;56522.59;;;-142.13;64.47
11712;BME280;5912;51.034;6.984;2023-03-25T06:42:30;56512.59;;;-142.13;64.41
11712;BME280;5912;51.034;6.984;2023-03-25T06:44:55;56520.59;;;-142.13;64.13
11712;BME280;5912;51.034;6.984;2023-03-25T06:47:21;56522.59;;;-142.13;63.64
11712;BME280;5912;51.034;6.984;2023-03-25T06:49:47;56498.56;;;-142.13;62.40
11712;BME280;5912;51.034;6.984;2023-03-25T06:52:12;56492.53;;;-142.13;62.92
11712;BME280;5912;51.034;6.984;2023-03-25T06:54:38;56470.50;;;-142.13;62.22
11712;BME280;5912;51.034;6.984;2023-03-25T06:57:04;56518.59;;;-142.13;61.62
11712;BME280;5912;51.034;6.984;2023-03-25T06:59:29;56508.56;;;-142.13;61.88
11712;BME280;5912;51.034;6.984;2023-03-25T07:01:55;56490.53;;;-142.13;60.12
11712;BME280;5912;51.034;6.984;2023-03-25T07:04:20;56518.59;;;-142.13;59.14
11712;BME280;5912;51.034;6.984;2023-03-25T07:06:46;56508.56;;;-142.13;59.81
11712;BME280;5912;51.034;6.984;2023-03-25T07:09:11;56490.53;;;-142.13;58.78
11712;BME280;5912;51.034;6.984;2023-03-25T07:11:36;56502.56;;;-142.13;58.81
11712;BME280;5912;51.034;6.984;2023-03-25T07:14:02;56456.50;;;-142.13;58.26
11712;BME280;5912;51.034;6.984;2023-03-25T07:16:27;56504.56;;;-142.13;57.93
11712;BME280;5912;51.034;6.984;2023-03-25T07:18:52;56466.50;;;-142.13;57.02
11712;BME280;5912;51.034;6.984;2023-03-25T07:21:21;56498.56;;;-142.13;57.27
11712;BME280;5912;51.034;6.984;2023-03-25T07:23:46;56470.50;;;-142.13;57.18
11712;BME280;5912;51.034;6.984;2023-03-25T07:26:12;56494.56;;;-142.13;56.58
11712;BME280;5912;51.034;6.984;2023-03-25T07:28:37;56486.53;;;-142.13;56.82
11712;BME280;5912;51.034;6.984;2023-03-25T07:31:08;56466.50;;;-142.13;56.61
11712;BME280;5912;51.034;6.984;2023-03-25T07:33:34;56470.50;;;-142.13;56.63
11712;BME280;5912;51.034;6.984;2023-03-25T07:35:59;56468.50;;;-142.13;56.72
11712;BME280;5912;51.034;6.984;2023-03-25T07:38:24;56434.44;;;-142.13;54.84
11712;BME280;5912;51.034;6.984;2023-03-25T07:40:50;56464.50;;;-142.13;55.25
11712;BME280;5912;51.034;6.984;2023-03-25T07:43:15;56504.56;;;-142.13;54.15
11712;BME280;5912;51.034;6.984;2023-03-25T07:49:02;56472.50;;;-142.13;55.26
11712;BME280;5912;51.034;6.984;2023-03-25T07:51:27;56490.53;;;-142.13;55.98
11712;BME280;5912;51.034;6.984;2023-03-25T07:53:54;56490.53;;;-142.13;54.81
11712;BME280;5912;51.034;6.984;2023-03-25T07:56:19;56500.56;;;-142.13;55.66
11712;BME280;5912;51.034;6.984;2023-03-25T07:58:44;56480.53;;;-142.13;56.02
11712;BME280;5912;51.034;6.984;2023-03-25T08:01:19;56470.50;;;-142.13;56.04
11712;BME280;5912;51.034;6.984;2023-03-25T08:03:44;56442.47;;;-142.13;56.48
11712;BME280;5912;51.034;6.984;2023-03-25T08:06:11;56456.50;;;-142.13;56.73
11712;BME280;5912;51.034;6.984;2023-03-25T08:08:36;56462.50;;;-142.13;55.48
11712;BME280;5912;51.034;6.984;2023-03-25T08:11:02;56478.53;;;-142.13;55.79
11712;BME280;5912;51.034;6.984;2023-03-25T08:13:28;56532.63;;;-142.13;55.46
11712;BME280;5912;51.034;6.984;2023-03-25T08:15:53;56458.50;;;-142.13;54.56
11712;BME280;5912;51.034;6.984;2023-03-25T08:18:19;56468.50;;;-142.13;54.16
11712;BME280;5912;51.034;6.984;2023-03-25T08:20:44;56452.47;;;-142.13;54.13
11712;BME280;5912;51.034;6.984;2023-03-25T08:23:10;56466.50;;;-142.13;53.05
11712;BME280;5912;51.034;6.984;2023-03-25T08:25:37;56488.53;;;-142.13;53.15
11712;BME280;5912;51.034;6.984;2023-03-25T08:28:03;56446.47;;;-142.13;52.71
11712;BME280;5912;51.034;6.984;2023-03-25T08:30:29;56444.47;;;-142.13;53.40
11712;BME280;5912;51.034;6.984;2023-03-25T08:32:54;56440.47;;;-142.13;53.44
11712;BME280;5912;51.034;6.984;2023-03-25T08:35:21;56462.50;;;-142.13;52.25
11712;BME280;5912;51.034;6.984;2023-03-25T08:37:47;56460.50;;;-142.13;51.67
11712;BME280;5912;51.034;6.984;2023-03-25T08:40:13;56434.44;;;-142.13;52.18
11712;BME280;5912;51.034;6.984;2023-03-25T08:42:41;56424.44;;;-142.13;52.38
11712;BME280;5912;51.034;6.984;2023-03-25T08:45:07;56454.47;;;-142.13;51.67
11712;BME280;5912;51.034;6.984;2023-03-25T08:47:33;56428.44;;;-142.13;51.60
11712;BME280;5912;51.034;6.984;2023-03-25T08:49:58;56448.47;;;-142.13;50.96
11712;BME280;5912;51.034;6.984;2023-03-25T08:52:23;56456.50;;;-142.13;51.70
11712;BME280;5912;51.034;6.984;2023-03-25T08:54:49;56456.50;;;-142.13;50.43
11712;BME280;5912;51.034;6.984;2023-03-25T08:57:14;56462.50;;;-142.13;50.23
11712;BME280;5912;51.034;6.984;2023-03-25T08:59:39;56448.47;;;-142.13;49.74
11712;BME280;5912;51.034;6.984;2023-03-25T09:02:42;56428.44;;;-142.13;49.35
11712;BME280;5912;51.034;6.984;2023-03-25T09:05:12;56428.44;;;-142.13;49.08
11712;BME280;5912;51.034;6.984;2023-03-25T09:07:38;56412.41;;;-142.13;48.19
11712;BME280;5912;51.034;6.984;2023-03-25T09:13:25;56444.47;;;-142.13;46.75
11712;BME280;5912;51.034;6.984;2023-03-25T09:15:50;56448.47;;;-142.13;47.76
11712;BME280;5912;51.034;6.984;2023-03-25T09:18:16;56438.47;;;-142.13;46.99
11712;BME280;5912;51.034;6.984;2023-03-25T09:20:41;56442.47;;;-142.13;46.10
11712;BME280;5912;51.034;6.984;2023-03-25T09:23:06;56420.44;;;-142.13;45.30
11712;BME280;5912;51.034;6.984;2023-03-25T09:25:34;56388.38;;;-142.13;45.82
11712;BME280;5912;51.034;6.984;2023-03-25T09:27:59;56384.38;;;-142.13;44.29
11712;BME280;5912;51.034;6.984;2023-03-25T09:30:24;56398.41;;;-142.13;42.87
11712;BME280;5912;51.034;6.984;2023-03-25T09:32:50;56410.41;;;-142.13;43.03
11712;BME280;5912;51.034;6.984;2023-03-25T09:35:15;56376.34;;;-142.13;42.01
11712;BME280;5912;51.034;6.984;2023-03-25T09:38:12;56380.38;;;-142.13;41.86
11712;BME280;5912;51.034;6.984;2023-03-25T09:40:40;56388.38;;;-142.13;41.68
11712;BME280;5912;51.034;6.984;2023-03-25T09:45:56;56386.38;;;-142.13;41.37
11712;BME280;5912;51.034;6.984;2023-03-25T09:48:45;56330.28;;;-142.13;40.16
11712;BME280;5912;51.034;6.984;2023-03-25T09:51:22;56314.25;;;-142.13;40.18
11712;BME280;5912;51.034;6.984;2023-03-25T09:56:26;56316.25;;;-142.13;39.44
11712;BME280;5912;51.034;6.984;2023-03-25T09:59:02;56348.31;;;-142.13;38.84
11712;BME280;5912;51.034;6.984;2023-03-25T10:01:38;56366.34;;;-142.13;38.45
11712;BME280;5912;51.034;6.984;2023-03-25T10:09:57;56360.34;;;-142.13;40.65
11712;BME280;5912;51.034;6.984;2023-03-25T10:23:25;56418.44;;;-142.13;42.21
11712;BME280;5912;51.034;6.984;2023-03-25T10:25:58;56388.38;;;-142.13;42.50
11712;BME280;5912;51.034;6.984;2023-03-25T10:28:30;56386.38;;;-142.13;42.34
11712;BME280;5912;51.034;6.984;2023-03-25T10:30:57;56438.47;;;-142.13;44.14
11712;BME280;5912;51.034;6.984;2023-03-25T10:33:36;56406.41;;;-142.13;46.01
11712;BME280;5912;51.034;6.984;2023-03-25T10:36:05;56420.44;;;-142.13;46.27
11712;BME280;5912;51.034;6.984;2023-03-25T10:38:33;56414.41;;;-142.13;45.82
11712;BME280;5912;51.034;6.984;2023-03-25T10:41:25;56434.44;;;-142.13;45.82
11712;BME280;5912;51.034;6.984;2023-03-25T10:43:54;56412.41;;;-142.13;46.02
11712;BME280;5912;51.034;6.984;2023-03-25T10:46:42;56416.44;;;-142.13;44.93
11712;BME280;5912;51.034;6.984;2023-03-25T10:49:18;56400.41;;;-142.13;45.30
11712;BME280;5912;51.034;6.984;2023-03-25T10:51:45;56438.47;;;-142.13;44.46
11712;BME280;5912;51.034;6.984;2023-03-25T10:54:12;56410.41;;;-142.13;44.99
11712;BME280;5912;51.034;6.984;2023-03-25T10:56:46;56388.38;;;-142.13;44.50
11712;BME280;5912;51.034;6.984;2023-03-25T10:59:35;56408.41;;;-142.13;43.91
11712;BME280;5912;51.034;6.984;2023-03-25T11:02:22;56396.41;;;-142.13;43.77
11712;BME280;5912;51.034;6.984;2023-03-25T11:05:00;56372.34;;;-142.13;42.60
11712;BME280;5912;51.034;6.984;2023-03-25T11:07:34;56404.41;;;-142.13;42.50
11712;BME280;5912;51.034;6.984;2023-03-25T11:12:35;56396.41;;;-142.13;42.93
11712;BME280;5912;51.034;6.984;2023-03-25T11:15:01;56372.34;;;-142.13;41.84
11712;BME280;5912;51.034;6.984;2023-03-25T11:17:27;56370.34;;;-142.13;40.45
11712;BME280;5912;51.034;6.984;2023-03-25T11:19:58;56336.28;;;-142.13;39.53
11712;BME280;5912;51.034;6.984;2023-03-25T11:22:30;56320.28;;;-142.13;38.49
11712;BME280;5912;51.034;6.984;2023-03-25T11:25:05;56332.28;;;-142.13;38.30
11712;BME280;5912;51.034;6.984;2023-03-25T11:27:41;56320.28;;;-142.13;38.74
11712;BME280;5912;51.034;6.984;2023-03-25T11:30:17;56308.25;;;-142.13;39.74
11712;BME280;5912;51.034;6.984;2023-03-25T11:32:43;56348.31;;;-142.13;40.30
11712;BME280;5912;51.034;6.984;2023-03-25T11:35:23;56338.31;;;-142.13;40.63
11712;BME280;5912;51.034;6.984;2023-03-25T11:38:00;56360.34;;;-142.13;41.43
11712;BME280;5912;51.034;6.984;2023-03-25T11:40:28;56376.34;;;-142.13;40.88
11712;BME280;5912;51.034;6.984;2023-03-25T11:42:56;56380.38;;;-142.13;40.97
11712;BME280;5912;51.034;6.984;2023-03-25T11:45:42;56344.31;;;-142.13;40.81
11712;BME280;5912;51.034;6.984;2023-03-25T11:48:14;56352.31;;;-142.13;40.10
11712;BME280;5912;51.034;6.984;2023-03-25T11:50:49;56324.28;;;-142.13;40.65
11712;BME280;5912;51.034;6.984;2023-03-25T11:53:19;56384.38;;;-142.13;41.19
11712;BME280;5912;51.034;6.984;2023-03-25T11:55:47;56382.38;;;-142.13;41.87
11712;BME280;5912;51.034;6.984;2023-03-25T11:58:16;56368.34;;;-142.13;41.87
11712;BME280;5912;51.034;6.984;2023-03-25T12:00:47;56392.38;;;-142.13;43.41
11712;BME280;5912;51.034;6.984;2023-03-25T12:05:39;56406.41;;;-142.13;42.77
11712;BME280;5912;51.034;6.984;2023-03-25T12:10:45;56364.34;;;-142.13;41.41
11712;BME280;5912;51.034;6.984;2023-03-25T12:13:19;56392.38;;;-142.13;41.96
11712;BME280;5912;51.034;6.984;2023-03-25T12:15:57;56376.34;;;-142.13;42.69
11712;BME280;5912;51.034;6.984;2023-03-25T12:18:48;56388.38;;;-142.13;42.96
11712;BME280;5912;51.034;6.984;2023-03-25T12:35:45;56386.38;;;-142.13;42.14
11712;BME280;5912;51.034;6.984;2023-03-25T12:41:28;56386.38;;;-142.13;40.71
11712;BME280;5912;51.034;6.984;2023-03-25T12:44:01;56348.31;;;-142.13;40.34
11712;BME280;5912;51.034;6.984;2023-03-25T12:55:22;56308.25;;;-142.13;35.86
11712;BME280;5912;51.034;6.984;2023-03-25T13:03:57;56328.28;;;-142.13;36.71
11712;BME280;5912;51.034;6.984;2023-03-25T13:06:36;56354.31;;;-142.13;36.82
11712;BME280;5912;51.034;6.984;2023-03-25T13:11:44;56328.28;;;-142.13;36.56
11712;BME280;5912;51.034;6.984;2023-03-25T13:14:18;56348.31;;;-142.13;36.95
11712;BME280;5912;51.034;6.984;2023-03-25T13:16:46;56340.31;;;-142.13;37.10
11712;BME280;5912;51.034;6.984;2023-03-25T13:19:16;56346.31;;;-142.13;37.32
11712;BME280;5912;51.034;6.984;2023-03-25T13:21:50;56358.34;;;-142.13;37.29
11712;BME280;5912;51.034;6.984;2023-03-25T13:26:43;56368.34;;;-142.13;38.40
11712;BME280;5912;51.034;6.984;2023-03-25T13:29:23;56380.38;;;-142.13;39.77
11712;BME280;5912;51.034;6.984;2023-03-25T13:31:50;56376.34;;;-142.13;39.83
11712;BME280;5912;51.034;6.984;2023-03-25T13:34:30;56406.41;;;-142.13;41.56
11712;BME280;5912;51.034;6.984;2023-03-25T13:37:04;56418.44;;;-142.13;46.30
11712;BME280;5912;51.034;6.984;2023-03-25T13:45:48;56426.44;;;-142.13;56.48
11712;BME280;5912;51.034;6.984;2023-03-25T13:48:19;56438.47;;;-142.13;58.12
11712;BME280;5912;51.034;6.984;2023-03-25T13:50:48;56478.53;;;-142.13;60.11
11712;BME280;5912;51.034;6.984;2023-03-25T13:59:15;56474.53;;;-142.13;64.26
11712;BME280;5912;51.034;6.984;2023-03-25T14:07:36;56458.50;;;-142.13;61.82
11712;BME280;5912;51.034;6.984;2023-03-25T14:13:05;56452.47;;;-142.13;60.72
11712;BME280;5912;51.034;6.984;2023-03-25T14:15:34;56436.47;;;-142.13;61.28
11712;BME280;5912;51.034;6.984;2023-03-25T14:18:03;56440.47;;;-142.13;61.01
11712;BME280;5912;51.034;6.984;2023-03-25T14:20:33;56466.50;;;-142.13;62.17
11712;BME280;5912;51.034;6.984;2023-03-25T14:23:05;56438.47;;;-142.13;60.74
11712;BME280;5912;51.034;6.984;2023-03-25T14:25:40;56424.44;;;-142.13;60.75
11712;BME280;5912;51.034;6.984;2023-03-25T14:28:07;56372.34;;;-142.13;55.01
11712;BME280;5912;51.034;6.984;2023-03-25T14:30:36;56324.28;;;-142.13;54.42
11712;BME280;5912;51.034;6.984;2023-03-25T14:33:02;56302.25;;;-142.13;49.46
11712;BME280;5912;51.034;6.984;2023-03-25T14:51:55;56246.16;;;-142.13;39.45
11712;BME280;5912;51.034;6.984;2023-03-25T14:54:01;56266.19;;;-142.13;41.73
11712;BME280;5912;51.034;6.984;2023-03-25T14:56:35;56292.22;;;-142.13;41.61
11712;BME280;5912;51.034;6.984;2023-03-25T15:02:18;56342.31;;;-142.13;43.91
11712;BME280;5912;51.034;6.984;2023-03-25T15:04:51;56368.34;;;-142.13;45.34
11712;BME280;5912;51.034;6.984;2023-03-25T15:07:19;56320.28;;;-142.13;45.65
11712;BME280;5912;51.034;6.984;2023-03-25T15:10:04;56340.31;;;-142.13;46.60
11712;BME280;5912;51.034;6.984;2023-03-25T15:12:30;56378.38;;;-142.13;46.63
11712;BME280;5912;51.034;6.984;2023-03-25T15:15:06;56338.31;;;-142.13;46.04
11712;BME280;5912;51.034;6.984;2023-03-25T15:17:55;56378.38;;;-142.13;46.42
11712;BME280;5912;51.034;6.984;2023-03-25T15:25:44;56408.41;;;-142.13;52.23
11712;BME280;5912;51.034;6.984;2023-03-25T15:42:24;56444.47;;;-142.13;55.48
11712;BME280;5912;51.034;6.984;2023-03-25T15:48:03;56444.47;;;-142.13;56.15
11712;BME280;5912;51.034;6.984;2023-03-25T15:53:25;56450.47;;;-142.13;55.61
11712;BME280;5912;51.034;6.984;2023-03-25T15:55:58;56444.47;;;-142.13;54.08
11712;BME280;5912;51.034;6.984;2023-03-25T15:58:31;56428.44;;;-142.13;54.77
11712;BME280;5912;51.034;6.984;2023-03-25T16:01:32;56470.50;;;-142.13;55.02
11712;BME280;5912;51.034;6.984;2023-03-25T16:04:18;56448.47;;;-142.13;56.27
11712;BME280;5912;51.034;6.984;2023-03-25T16:06:47;56454.47;;;-142.13;57.43